Time;durP1;ratioP1;P1;durP2;ratioP2;P2;SDS_P1;SDS_P2;PMS_P1;PMS_P2;Temp;Humidity;BMP_temperature;BMP_pressure;BME280_temperature;BME280_humidity;BME280_pressure;Samples;Min_cycle;Max_cycle;Signal;HPM_P1;HPM_P2
2023/08/10 00:01:56;;;;;;;10.30;4.00;;;;;;;18.89;60.30;100965.97;105141;1259;60552;-58
2023/08/10 00:04:23;;;;;;;9.30;4.10;;;;;;;18.91;60.32;100964.17;105197;1254;65044;-58
2023/08/10 00:07:30;;;;;;;7.30;4.10;;;;;;;18.78;60.69;100971.76;104126;1292;600421;-90
2023/08/10 00:10:02;;;;;;;6.70;4.00;;;;;;;18.96;59.99;100967.02;107723;1273;56974;-87
2023/08/10 00:12:30;;;;;;;7.70;4.10;;;;;;;18.99;59.79;100966.66;107789;1273;59696;-86
2023/08/10 00:14:57;;;;;;;7.60;4.10;;;;;;;18.99;59.73;100962.02;107213;1261;66160;-87
2023/08/10 00:17:25;;;;;;;7.60;4.40;;;;;;;18.97;59.65;100966.11;106433;1266;61449;-87
2023/08/10 00:19:52;;;;;;;6.30;3.80;;;;;;;18.94;59.73;100968.25;106377;1262;62545;-87
2023/08/10 00:22:20;;;;;;;9.30;4.80;;;;;;;18.90;59.79;100966.89;106031;1260;59402;-87
2023/08/10 00:24:47;;;;;;;6.00;4.20;;;;;;;18.89;59.55;100967.17;107889;1258;59286;-86
2023/08/10 00:28:13;;;;;;;7.20;4.50;;;;;;;18.71;60.08;100969.23;104607;1289;600248;-91
2023/08/10 00:30:43;;;;;;;6.70;4.20;;;;;;;18.82;59.78;100972.20;107947;1269;57112;-91
2023/08/10 00:33:15;;;;;;;7.30;4.10;;;;;;;18.80;59.75;100972.20;108150;1267;58918;-87
2023/08/10 00:35:59;;;;;;;12.10;4.30;;;;;;;18.79;59.70;100971.55;106901;1271;63319;-88
2023/08/10 00:38:26;;;;;;;7.30;4.20;;;;;;;18.75;59.92;100972.04;105357;1267;61384;-86
2023/08/10 00:40:53;;;;;;;7.40;4.10;;;;;;;18.71;59.93;100971.85;105741;1265;195120;-87
2023/08/10 00:43:21;;;;;;;7.80;4.30;;;;;;;18.71;59.83;100971.19;105800;1265;59300;-87
2023/08/10 00:45:50;;;;;;;8.60;4.00;;;;;;;18.69;59.99;100975.09;105853;1263;59260;-86
2023/08/10 00:48:18;;;;;;;6.80;4.10;;;;;;;18.72;60.18;100976.80;106485;1263;70831;-87
2023/08/10 00:50:45;;;;;;;8.00;4.10;;;;;;;18.71;60.26;100978.05;105768;1265;61561;-87
2023/08/10 00:53:13;;;;;;;7.30;4.70;;;;;;;18.66;60.35;100977.77;106245;1265;62517;-88
2023/08/10 00:55:42;;;;;;;7.70;4.50;;;;;;;18.60;60.38;100980.00;105840;1264;59769;-86
2023/08/10 00:58:12;;;;;;;11.20;4.70;;;;;;;18.56;60.51;100982.13;106664;1263;59466;-86
2023/08/10 01:00:40;;;;;;;8.00;4.40;;;;;;;18.54;60.55;100981.89;105703;1263;62905;-87
2023/08/10 01:03:08;;;;;;;7.10;3.80;;;;;;;18.55;60.75;100982.48;105494;1265;61348;-88
2023/08/10 01:05:39;;;;;;;8.50;4.90;;;;;;;18.57;60.70;100984.03;106041;1265;63812;-87
2023/08/10 01:08:15;;;;;;;7.00;4.00;;;;;;;18.58;60.74;100986.07;106182;1265;59656;-87
2023/08/10 01:11:19;;;;;;;7.80;4.60;;;;;;;18.54;60.64;100989.14;106477;1263;59712;-87
2023/08/10 01:14:03;;;;;;;8.40;4.70;;;;;;;18.47;60.78;100998.04;105936;1262;62927;-87
2023/08/10 01:16:31;;;;;;;9.70;4.30;;;;;;;18.41;61.07;101003.81;106608;1263;61402;-87
2023/08/10 01:18:58;;;;;;;9.00;5.00;;;;;;;18.37;61.06;101002.52;105598;1264;62497;-86
2023/08/10 01:21:34;;;;;;;6.40;4.30;;;;;;;18.32;61.14;101001.20;105353;1264;59792;-87
2023/08/10 01:24:08;;;;;;;7.00;3.90;;;;;;;18.29;61.40;101003.95;105684;1265;59862;-88
2023/08/10 01:26:35;;;;;;;8.20;4.10;;;;;;;18.29;61.45;101008.36;106374;1264;64107;-85
2023/08/10 01:29:03;;;;;;;7.30;4.10;;;;;;;18.31;61.46;101007.54;105798;1264;61443;-88
2023/08/10 01:31:31;;;;;;;8.30;4.50;;;;;;;18.29;61.69;101006.59;106147;1264;62561;-87
2023/08/10 01:33:58;;;;;;;10.40;4.40;;;;;;;18.27;62.06;101007.04;105610;1269;60814;-87
2023/08/10 01:36:26;;;;;;;8.90;4.20;;;;;;;18.26;62.30;101008.06;106050;1264;59724;-86
2023/08/10 01:38:53;;;;;;;9.20;4.90;;;;;;;18.23;62.34;101007.61;106018;1267;64159;-87
2023/08/10 01:41:21;;;;;;;6.90;4.30;;;;;;;18.22;62.30;101006.52;105924;1267;60272;-87
2023/08/10 01:43:48;;;;;;;8.80;4.40;;;;;;;18.22;62.42;101011.44;106667;1263;62511;-86
2023/08/10 01:46:15;;;;;;;7.30;4.50;;;;;;;18.24;62.39;101010.92;105657;1267;60179;-87
2023/08/10 01:48:43;;;;;;;7.80;4.50;;;;;;;18.23;62.22;101007.08;107032;1264;59311;-85
2023/08/10 01:51:14;;;;;;;9.00;4.40;;;;;;;18.20;62.36;101014.31;107945;1269;62895;-87
2023/08/10 01:53:41;;;;;;;7.50;4.60;;;;;;;18.18;62.50;101021.91;107923;1265;60282;-85
2023/08/10 01:56:09;;;;;;;8.90;4.70;;;;;;;18.16;62.07;101021.59;106915;1269;62503;-87
2023/08/10 01:58:36;;;;;;;7.30;4.40;;;;;;;18.12;62.11;101020.04;105797;1266;59786;-87
2023/08/10 02:01:04;;;;;;;8.30;3.90;;;;;;;18.13;62.08;101016.47;105971;1265;59826;-87
2023/08/10 02:03:31;;;;;;;7.30;4.20;;;;;;;18.16;62.16;101020.95;105605;1266;64111;-86
2023/08/10 02:05:59;;;;;;;7.80;4.80;;;;;;;18.17;62.10;101022.39;106290;1269;60110;-87
2023/08/10 02:08:26;;;;;;;6.40;4.30;;;;;;;18.14;62.12;101021.14;105929;1268;62494;-86
2023/08/10 02:10:54;;;;;;;7.80;4.20;;;;;;;18.09;62.14;101020.71;106670;1264;59669;-86
2023/08/10 02:13:21;;;;;;;8.50;4.60;;;;;;;18.05;62.28;101021.52;105561;1265;59582;-86
2023/08/10 02:15:49;;;;;;;8.60;4.30;;;;;;;18.00;62.37;101019.71;105577;1266;64144;-87
2023/08/10 02:18:17;;;;;;;6.40;3.90;;;;;;;17.96;62.28;101020.42;105594;1267;61496;-87
2023/08/10 02:20:45;;;;;;;8.80;4.30;;;;;;;17.94;62.42;101024.90;105727;1266;63717;-86
2023/08/10 02:23:12;;;;;;;6.70;4.10;;;;;;;17.92;62.56;101026.71;105355;1265;59795;-86
2023/08/10 02:25:40;;;;;;;8.10;5.10;;;;;;;17.91;62.81;101029.83;105471;1267;59594;-88
2023/08/10 02:28:07;;;;;;;7.00;4.30;;;;;;;17.88;62.74;101033.27;106188;1264;64137;-87
2023/08/10 02:30:35;;;;;;;8.30;4.70;;;;;;;17.85;62.73;101034.00;105834;1268;60198;-86
2023/08/10 02:33:03;;;;;;;7.00;4.20;;;;;;;17.79;62.85;101037.35;106036;1263;63888;-86
2023/08/10 02:35:30;;;;;;;7.90;4.50;;;;;;;17.75;63.00;101041.86;106872;1264;59838;-86
2023/08/10 02:37:58;;;;;;;15.30;4.40;;;;;;;17.75;62.97;101040.98;106046;1264;59646;-87
2023/08/10 02:40:25;;;;;;;12.10;5.00;;;;;;;17.77;62.88;101039.71;107432;1263;63048;-86
2023/08/10 02:42:53;;;;;;;7.60;4.80;;;;;;;17.80;62.82;101036.02;108829;1264;60176;-87
2023/08/10 02:45:20;;;;;;;8.20;5.10;;;;;;;17.81;62.74;101041.41;108904;1264;62458;-86
2023/08/10 02:47:48;;;;;;;10.50;5.90;;;;;;;17.81;62.68;101047.80;108973;1260;59113;-86
2023/08/10 02:50:16;;;;;;;9.00;4.60;;;;;;;17.82;62.81;101049.70;108970;1261;57300;-86
2023/08/10 02:52:43;;;;;;;10.20;5.40;;;;;;;17.82;62.66;101051.98;108968;1261;62965;-86
2023/08/10 02:55:11;;;;;;;8.60;4.60;;;;;;;17.84;62.61;101054.67;107577;1262;60173;-86
2023/08/10 02:57:38;;;;;;;8.50;5.20;;;;;;;17.87;62.59;101048.54;107018;1265;62467;-87
2023/08/10 03:00:07;;;;;;;7.00;4.50;;;;;;;17.92;62.58;101048.77;105723;1266;59790;-87
2023/08/10 03:02:35;;;;;;;8.20;4.10;;;;;;;17.93;62.74;101050.02;105865;1262;59770;-86
2023/08/10 03:05:05;;;;;;;8.20;4.40;;;;;;;17.94;62.85;101052.08;106058;1266;64206;-87
2023/08/10 03:07:34;;;;;;;11.90;4.70;;;;;;;17.94;63.11;101050.42;106251;1262;61437;-87
2023/08/10 03:10:02;;;;;;;11.70;5.60;;;;;;;17.94;63.18;101048.40;106059;1263;62474;-86
2023/08/10 03:12:30;;;;;;;8.80;5.20;;;;;;;17.93;63.14;101054.11;105682;1266;59770;-86
2023/08/10 03:14:57;;;;;;;7.40;4.30;;;;;;;17.91;62.92;101052.90;106263;1262;59524;-86
2023/08/10 03:17:25;;;;;;;8.80;4.90;;;;;;;17.90;63.13;101059.55;106097;1267;64045;-88
2023/08/10 03:19:54;;;;;;;9.30;5.30;;;;;;;17.93;63.19;101059.98;106243;1266;60475;-88
2023/08/10 03:22:25;;;;;;;9.80;5.40;;;;;;;17.97;63.20;101065.11;105996;1268;62640;-87
2023/08/10 03:24:53;;;;;;;10.10;6.60;;;;;;;17.97;63.18;101069.02;105994;1262;59843;-87
2023/08/10 03:27:21;;;;;;;11.60;6.70;;;;;;;17.92;62.84;101073.02;106449;1260;59746;-86
2023/08/10 03:29:48;;;;;;;20.90;13.70;;;;;;;17.84;62.40;101071.66;106095;1266;62885;-88
2023/08/10 03:32:16;;;;;;;16.00;10.00;;;;;;;17.77;62.47;101071.89;106015;1260;60131;-87
2023/08/10 03:34:44;;;;;;;15.90;10.70;;;;;;;17.77;62.43;101068.49;106822;1265;62475;-87
2023/08/10 03:37:12;;;;;;;16.60;11.20;;;;;;;17.81;62.47;101069.52;106247;1263;59585;-86
2023/08/10 03:39:39;;;;;;;20.30;14.00;;;;;;;17.86;62.46;101069.58;106666;1262;59517;-89
2023/08/10 03:42:07;;;;;;;39.00;29.70;;;;;;;17.91;62.38;101069.08;106075;1262;63186;-87
2023/08/10 03:44:34;;;;;;;39.30;29.50;;;;;;;17.96;62.56;101073.17;106183;1262;60252;-87
2023/08/10 03:47:02;;;;;;;43.80;29.50;;;;;;;18.01;62.41;101073.19;106090;1265;63726;-86
2023/08/10 03:49:29;;;;;;;32.30;21.40;;;;;;;18.05;62.46;101074.58;106285;1262;59885;-87
2023/08/10 03:51:57;;;;;;;23.10;16.60;;;;;;;18.11;62.43;101071.70;106262;1263;59752;-89
2023/08/10 03:54:26;;;;;;;15.70;11.10;;;;;;;18.17;62.70;101071.96;106286;1262;64799;-86
2023/08/10 03:56:53;;;;;;;17.10;9.30;;;;;;;18.25;62.90;101072.25;106211;1262;60138;-88
2023/08/10 03:59:21;;;;;;;20.80;15.10;;;;;;;18.33;63.00;101071.43;105872;1263;63678;-87
2023/08/10 04:01:51;;;;;;;22.50;16.60;;;;;;;18.40;63.06;101073.49;105854;1266;59826;-87
2023/08/10 04:04:18;;;;;;;16.40;11.70;;;;;;;18.47;62.97;101074.73;105974;1267;59640;-87
2023/08/10 04:06:46;;;;;;;15.30;12.10;;;;;;;18.53;63.17;101066.85;105628;1266;62831;-87
2023/08/10 04:09:14;;;;;;;22.10;11.70;;;;;;;18.61;63.26;101067.31;105390;1268;62544;-89
2023/08/10 04:11:41;;;;;;;14.60;9.70;;;;;;;18.72;63.15;101069.35;106287;1265;63869;-89
2023/08/10 04:14:10;;;;;;;10.30;7.30;;;;;;;18.82;63.01;101068.05;105442;1266;59733;-87
2023/08/10 04:16:37;;;;;;;9.80;7.20;;;;;;;18.88;63.11;101066.46;106021;1265;59743;-92
2023/08/10 04:19:05;;;;;;;16.10;10.30;;;;;;;18.94;63.28;101063.20;105488;1264;64118;-90
2023/08/10 04:21:32;;;;;;;15.90;10.30;;;;;;;19.00;63.44;101067.23;106239;1266;61332;-88
2023/08/10 04:24:00;;;;;;;15.10;10.50;;;;;;;19.11;63.33;101069.45;105594;1267;62473;-87
2023/08/10 04:26:28;;;;;;;15.40;10.00;;;;;;;19.23;63.14;101070.44;106590;1266;59634;-86
2023/08/10 04:28:55;;;;;;;13.10;9.10;;;;;;;19.33;63.11;101066.02;106110;1261;59648;-87
2023/08/10 04:31:23;;;;;;;9.60;7.40;;;;;;;19.42;63.05;101066.98;105616;1266;64176;-87
2023/08/10 04:33:50;;;;;;;9.20;5.70;;;;;;;19.54;63.07;101065.10;106204;1266;60542;-91
2023/08/10 04:36:18;;;;;;;10.20;5.50;;;;;;;19.64;62.68;101060.40;105441;1273;63740;-86
2023/08/10 04:38:45;;;;;;;8.80;5.80;;;;;;;19.74;61.78;101064.83;105663;1262;60521;-83
2023/08/10 04:41:13;;;;;;;7.90;5.10;;;;;;;19.81;60.81;101069.21;106301;1264;60860;-84
2023/08/10 04:43:40;;;;;;;7.10;4.70;;;;;;;19.92;60.22;101065.48;106809;1268;64361;-82
2023/08/10 04:46:08;;;;;;;7.80;5.40;;;;;;;20.04;59.75;101061.99;108610;1261;60123;-83
2023/08/10 04:48:35;;;;;;;8.90;5.40;;;;;;;20.14;59.04;101060.39;108618;1264;62564;-83
2023/08/10 04:51:04;;;;;;;6.60;4.20;;;;;;;20.21;58.28;101058.48;107002;1262;60518;-87
2023/08/10 04:53:31;;;;;;;8.30;4.60;;;;;;;20.28;57.62;101065.23;107933;1262;58437;-87
2023/08/10 04:55:59;;;;;;;6.50;3.70;;;;;;;20.35;57.44;101068.33;107725;1263;63657;-89
2023/08/10 04:58:26;;;;;;;7.90;4.00;;;;;;;20.43;56.29;101072.16;106985;1264;61501;-89
2023/08/10 05:00:54;;;;;;;7.40;4.50;;;;;;;20.48;55.59;101075.20;106155;1266;63670;-89
2023/08/10 05:03:21;;;;;;;8.00;4.30;;;;;;;20.50;55.35;101074.88;105551;1262;60450;-91
2023/08/10 05:05:49;;;;;;;7.20;4.10;;;;;;;20.53;55.30;101076.70;105962;1261;60658;-86
2023/08/10 05:08:17;;;;;;;6.30;4.10;;;;;;;20.59;55.21;101078.73;106280;1263;65085;-87
2023/08/10 05:10:44;;;;;;;7.50;3.60;;;;;;;20.67;55.29;101079.46;105685;1261;60586;-88
2023/08/10 05:13:12;;;;;;;7.20;4.00;;;;;;;20.76;55.41;101084.81;105840;1265;62443;-88
2023/08/10 05:15:39;;;;;;;7.70;4.60;;;;;;;20.83;55.17;101081.73;106220;1266;60530;-87
2023/08/10 05:18:07;;;;;;;7.40;4.90;;;;;;;20.89;55.08;101081.67;106318;1260;60471;-85
2023/08/10 05:20:36;;;;;;;6.40;3.70;;;;;;;20.94;54.48;101084.12;107570;1260;63779;-87
2023/08/10 05:23:04;;;;;;;7.60;4.10;;;;;;;20.99;54.26;101088.95;105521;1265;61352;-91
2023/08/10 05:25:32;;;;;;;6.70;4.10;;;;;;;21.04;54.14;101091.20;106027;1266;62593;-85
2023/08/10 05:27:59;;;;;;;10.00;4.70;;;;;;;21.08;54.57;101086.76;106077;1266;60479;-91
2023/08/10 05:30:27;;;;;;;6.70;4.20;;;;;;;21.12;54.41;101084.36;106583;1265;60311;-87
2023/08/10 05:32:54;;;;;;;6.80;3.60;;;;;;;21.16;54.01;101087.13;105707;1265;63688;-88
2023/08/10 05:35:22;;;;;;;8.40;4.30;;;;;;;21.21;54.26;101087.83;105588;1261;61385;-86
2023/08/10 05:37:49;;;;;;;7.00;3.10;;;;;;;21.28;54.36;101086.33;105942;1265;63687;-86
2023/08/10 05:40:17;;;;;;;6.70;3.20;;;;;;;21.35;53.76;101087.41;105808;1266;60470;-88
2023/08/10 05:42:45;;;;;;;9.20;3.70;;;;;;;21.42;53.18;101085.44;105537;1265;60596;-89
2023/08/10 05:45:16;;;;;;;6.10;3.20;;;;;;;21.48;52.39;101083.48;106493;1261;63676;-88
2023/08/10 05:47:44;;;;;;;6.90;3.50;;;;;;;21.53;51.84;101085.02;108294;1261;60254;-88
2023/08/10 05:50:13;;;;;;;5.80;3.10;;;;;;;21.60;51.69;101085.39;107777;1264;62463;-85
2023/08/10 05:52:42;;;;;;;7.20;3.10;;;;;;;21.66;51.49;101085.86;106944;1264;60496;-88
2023/08/10 05:55:10;;;;;;;6.00;3.10;;;;;;;21.71;51.22;101090.62;106646;1263;60458;-87
2023/08/10 05:57:39;;;;;;;8.30;3.10;;;;;;;21.77;50.94;101089.31;105834;1264;64931;-91
2023/08/10 06:00:08;;;;;;;5.90;3.10;;;;;;;21.80;50.96;101093.27;105818;1265;61317;-89
2023/08/10 06:02:42;;;;;;;8.20;2.90;;;;;;;21.80;50.84;101088.00;106495;1263;62575;-87
2023/08/10 06:05:10;;;;;;;6.00;3.00;;;;;;;21.80;50.40;101090.31;105725;1265;60435;-89
2023/08/10 06:07:37;;;;;;;5.70;3.00;;;;;;;21.84;50.00;101090.17;106249;1265;59137;-87
2023/08/10 06:10:06;;;;;;;7.30;3.30;;;;;;;21.88;49.79;101088.27;106566;1261;64886;-86
2023/08/10 06:12:33;;;;;;;5.80;3.50;;;;;;;21.93;49.55;101086.85;106236;1264;60530;-83
2023/08/10 06:15:01;;;;;;;5.90;3.00;;;;;;;21.97;49.19;101084.92;106618;1264;62542;-87
2023/08/10 06:17:28;;;;;;;5.80;3.00;;;;;;;22.02;48.84;101083.09;106501;1264;60461;-86
2023/08/10 06:19:57;;;;;;;6.50;3.30;;;;;;;22.08;49.31;101085.63;105695;1261;60479;-90
2023/08/10 06:22:27;;;;;;;7.70;3.30;;;;;;;22.15;49.56;101082.02;106088;1267;64774;-86
2023/08/10 06:24:54;;;;;;;6.90;3.20;;;;;;;22.19;48.84;101080.11;106172;1260;61430;-84
2023/08/10 06:27:22;;;;;;;7.10;3.00;;;;;;;22.23;48.72;101079.15;108750;1263;63799;-87
2023/08/10 06:29:49;;;;;;;7.00;3.10;;;;;;;22.29;48.68;101074.43;108768;1261;58534;-83
2023/08/10 06:32:18;;;;;;;7.60;3.10;;;;;;;22.35;48.44;101075.11;108746;1261;58220;-87
2023/08/10 06:34:45;;;;;;;7.80;2.80;;;;;;;22.41;48.58;101077.40;108735;1260;64917;-88
2023/08/10 06:37:15;;;;;;;6.60;3.20;;;;;;;22.48;48.49;101075.34;108762;1263;61505;-88
2023/08/10 06:39:46;;;;;;;6.20;3.00;;;;;;;22.54;48.41;101077.52;108744;1261;63665;-87
2023/08/10 06:42:14;;;;;;;6.00;3.10;;;;;;;22.56;48.18;101076.80;106434;1265;60587;-90
2023/08/10 06:44:42;;;;;;;5.90;3.00;;;;;;;22.57;48.24;101078.42;106417;1262;60351;-94
2023/08/10 06:47:10;;;;;;;5.40;2.60;;;;;;;22.58;48.18;101079.60;105660;1262;63685;-90
2023/08/10 06:49:38;;;;;;;6.00;3.40;;;;;;;22.58;48.11;101079.03;107108;1263;61398;-89
2023/08/10 06:52:06;;;;;;;5.40;3.00;;;;;;;22.58;48.05;101080.96;107501;1262;63727;-87
2023/08/10 06:54:33;;;;;;;6.50;3.00;;;;;;;22.59;48.08;101077.67;108631;1264;58183;-87
2023/08/10 06:57:01;;;;;;;6.10;2.50;;;;;;;22.61;48.56;101074.29;108431;1263;58243;-88
2023/08/10 06:59:29;;;;;;;6.40;3.20;;;;;;;22.67;48.83;101076.59;107700;1261;64935;-87
2023/08/10 07:02:16;;;;;;;6.10;2.90;;;;;;;22.75;48.60;101077.89;108972;1263;60142;-88
2023/08/10 07:04:49;;;;;;;6.60;2.90;;;;;;;22.81;48.28;101077.71;109034;1261;62617;-88
2023/08/10 07:07:16;;;;;;;5.90;3.00;;;;;;;22.87;48.31;101078.20;108842;1261;58286;-87
2023/08/10 07:09:44;;;;;;;6.70;2.90;;;;;;;22.93;48.08;101074.90;108427;1262;59227;-90
2023/08/10 07:12:11;;;;;;;8.40;3.50;;;;;;;22.99;47.60;101075.67;108607;1261;63661;-91
2023/08/10 07:14:39;;;;;;;5.00;2.70;;;;;;;23.04;47.27;101076.48;108205;1266;60152;-88
2023/08/10 07:17:06;;;;;;;6.30;3.00;;;;;;;23.10;47.27;101073.94;106223;1263;62792;-88
2023/08/10 07:19:35;;;;;;;9.40;3.10;;;;;;;23.17;46.98;101076.10;106236;1263;60587;-85
2023/08/10 07:22:03;;;;;;;5.20;2.60;;;;;;;23.27;46.41;101074.10;108598;1261;58171;-87
2023/08/10 07:24:31;;;;;;;5.40;2.80;;;;;;;23.36;46.22;101074.30;108891;1260;64893;-88
2023/08/10 07:26:59;;;;;;;5.10;2.20;;;;;;;23.46;45.57;101078.17;108607;1261;60280;-87
2023/08/10 07:29:26;;;;;;;7.10;2.10;;;;;;;23.53;44.15;101077.74;108762;1263;63770;-87
2023/08/10 07:31:56;;;;;;;6.90;2.40;;;;;;;23.61;43.40;101072.16;108763;1264;58558;-88
2023/08/10 07:34:23;;;;;;;4.70;2.20;;;;;;;23.68;42.50;101074.67;108710;1260;58617;-87
2023/08/10 07:36:51;;;;;;;6.10;2.40;;;;;;;23.73;42.34;101073.39;108713;1264;64859;-87
2023/08/10 07:39:18;;;;;;;5.30;2.40;;;;;;;23.80;42.32;101072.85;108804;1260;61314;-87
2023/08/10 07:41:46;;;;;;;5.80;2.30;;;;;;;23.88;41.81;101077.98;108740;1262;62734;-86
2023/08/10 07:44:13;;;;;;;5.30;2.30;;;;;;;23.96;41.11;101071.27;108715;1260;58516;-86
2023/08/10 07:46:40;;;;;;;4.80;2.50;;;;;;;24.05;40.26;101072.77;108763;1261;58189;-85
2023/08/10 07:49:08;;;;;;;6.10;2.00;;;;;;;24.15;40.22;101075.25;108810;1260;63636;-88
2023/08/10 07:51:35;;;;;;;7.80;2.00;;;;;;;24.28;40.53;101077.91;108768;1260;61440;-86
2023/08/10 07:54:03;;;;;;;5.20;2.00;;;;;;;24.41;40.65;101069.55;108277;1260;63758;-87
2023/08/10 07:56:30;;;;;;;4.90;2.30;;;;;;;24.56;41.16;101068.61;106381;1265;60484;-87
2023/08/10 07:58:58;;;;;;;4.50;1.70;;;;;;;24.68;39.39;101067.83;105952;1264;60499;-85
2023/08/10 08:01:25;;;;;;;5.40;2.20;;;;;;;24.74;38.52;101068.64;106082;1260;64871;-91
2023/08/10 08:03:53;;;;;;;4.20;2.00;;;;;;;24.78;39.04;101063.94;106065;1260;61043;-90
2023/08/10 08:06:21;;;;;;;6.40;2.40;;;;;;;24.84;39.07;101060.98;107172;1262;62462;-90
2023/08/10 08:08:48;;;;;;;4.40;2.20;;;;;;;24.91;39.05;101055.88;108068;1262;60519;-86
2023/08/10 08:11:16;;;;;;;4.70;2.20;;;;;;;24.96;38.87;101056.27;106063;1261;60560;-91
2023/08/10 08:13:44;;;;;;;9.80;2.40;;;;;;;25.00;38.58;101059.05;105919;1260;63642;-85
2023/08/10 08:16:11;;;;;;;5.30;2.10;;;;;;;25.03;37.99;101056.98;108998;1260;60120;-88
2023/08/10 08:18:42;;;;;;;4.50;2.10;;;;;;;25.03;37.75;101052.94;108990;1260;62467;-86
2023/08/10 08:21:10;;;;;;;6.10;2.30;;;;;;;25.07;38.07;101055.30;108962;1260;57945;-89
2023/08/10 08:23:37;;;;;;;4.50;2.30;;;;;;;25.14;38.52;101052.48;108975;1260;57705;-85
2023/08/10 08:26:05;;;;;;;5.80;2.20;;;;;;;25.24;38.47;101053.17;108886;1260;63730;-84
2023/08/10 08:28:33;;;;;;;5.70;2.40;;;;;;;25.32;37.64;101049.90;108403;1260;70277;-88
2023/08/10 08:31:00;;;;;;;4.70;2.30;;;;;;;25.36;36.90;101044.84;108752;1260;62459;-88
2023/08/10 08:33:28;;;;;;;6.10;2.50;;;;;;;25.42;37.01;101045.80;106007;1264;60522;-91
2023/08/10 08:35:57;;;;;;;6.40;2.20;;;;;;;25.48;36.75;101041.72;105411;1261;60651;-92
2023/08/10 08:38:24;;;;;;;5.00;2.30;;;;;;;25.52;36.54;101042.95;108107;1260;63673;-92
2023/08/10 08:40:53;;;;;;;5.70;2.70;;;;;;;25.56;37.23;101042.75;105811;1260;60528;-87
2023/08/10 08:43:21;;;;;;;6.40;2.80;;;;;;;25.65;37.27;101041.11;106016;1262;62565;-88
2023/08/10 08:45:48;;;;;;;5.60;2.30;;;;;;;25.70;36.62;101042.10;106527;1261;60576;-89
2023/08/10 08:48:16;;;;;;;5.30;2.00;;;;;;;25.73;35.48;101041.08;105562;1260;60384;-87
2023/08/10 08:50:45;;;;;;;6.50;2.20;;;;;;;25.73;35.63;101040.65;105716;1262;64901;-86
2023/08/10 08:53:13;;;;;;;5.90;1.90;;;;;;;25.74;35.00;101039.66;106758;1260;61325;-92
2023/08/10 08:55:41;;;;;;;7.50;2.60;;;;;;;25.72;34.97;101043.02;107681;1262;63707;-88
2023/08/10 08:58:08;;;;;;;4.20;1.90;;;;;;;25.68;35.33;101045.67;106293;1260;60542;-88
2023/08/10 09:00:36;;;;;;;4.90;1.70;;;;;;;25.67;35.49;101041.69;105248;1266;60441;-88
2023/08/10 09:03:04;;;;;;;4.50;2.20;;;;;;;25.70;35.76;101043.64;105571;1265;63620;-89
2023/08/10 09:05:32;;;;;;;4.50;1.80;;;;;;;25.70;35.37;101039.78;106134;1260;61342;-90
2023/08/10 09:07:59;;;;;;;6.00;1.90;;;;;;;25.68;35.39;101042.60;105562;1260;62443;-89
2023/08/10 09:10:27;;;;;;;5.20;2.30;;;;;;;25.65;35.75;101045.59;105567;1260;60464;-87
2023/08/10 09:12:54;;;;;;;5.50;2.60;;;;;;;25.64;35.04;101042.80;105956;1261;61774;-89
2023/08/10 09:15:26;;;;;;;5.00;2.10;;;;;;;25.67;35.26;101040.90;107432;1266;63728;-84
2023/08/10 09:17:55;;;;;;;5.80;2.40;;;;;;;25.75;35.45;101036.66;108321;1260;61326;-85
2023/08/10 09:20:30;;;;;;;5.00;2.40;;;;;;;25.82;35.19;101028.49;108941;1260;62492;-81
2023/08/10 09:23:00;;;;;;;5.00;2.30;;;;;;;25.89;34.85;101028.70;108983;1260;57892;-90
2023/08/10 09:25:34;;;;;;;4.00;2.30;;;;;;;25.91;34.66;101027.13;108960;1260;58526;-91
2023/08/10 09:28:09;;;;;;;5.30;3.20;;;;;;;25.93;33.84;101022.94;105906;1261;63794;-87
2023/08/10 09:30:37;;;;;;;4.70;2.40;;;;;;;25.94;34.26;101019.67;105716;1266;62674;-91
2023/08/10 09:33:05;;;;;;;4.10;2.20;;;;;;;25.97;33.77;101022.42;105434;1262;62488;-89
2023/08/10 09:35:32;;;;;;;4.90;2.20;;;;;;;26.02;34.64;101027.39;106045;1261;60546;-90
2023/08/10 09:38:02;;;;;;;6.10;2.20;;;;;;;26.11;35.29;101027.30;107305;1261;60481;-86
2023/08/10 09:40:30;;;;;;;6.00;2.50;;;;;;;26.19;35.32;101028.02;108909;1261;63664;-86
2023/08/10 09:42:58;;;;;;;4.40;2.00;;;;;;;26.27;35.38;101030.09;109019;1261;69054;-88
2023/08/10 09:45:26;;;;;;;9.10;2.50;;;;;;;26.34;34.91;101033.77;108992;1261;62519;-88
2023/08/10 09:47:53;;;;;;;4.20;2.20;;;;;;;26.40;34.30;101036.08;108931;1261;58037;-90
2023/08/10 09:50:21;;;;;;;5.40;2.30;;;;;;;26.46;33.78;101034.89;108878;1261;58116;-89
2023/08/10 09:52:49;;;;;;;4.20;2.30;;;;;;;26.50;34.06;101031.10;108958;1261;63865;-89
2023/08/10 09:55:20;;;;;;;5.60;2.30;;;;;;;26.55;34.01;101027.23;108917;1261;60153;-84
2023/08/10 09:57:47;;;;;;;4.50;2.20;;;;;;;26.64;33.60;101017.95;106322;1262;62460;-92
2023/08/10 10:00:19;;;;;;;5.10;2.10;;;;;;;26.71;33.39;101016.90;108914;1260;58179;-86
2023/08/10 10:02:47;;;;;;;8.30;2.40;;;;;;;26.83;33.71;101018.88;109085;1260;57510;-91
2023/08/10 10:05:17;;;;;;;4.90;2.70;;;;;;;26.98;33.63;101019.13;108980;1260;63726;-88
2023/08/10 10:08:02;;;;;;;4.30;2.20;;;;;;;27.09;33.00;101019.40;108937;1260;60154;-86
2023/08/10 10:10:29;;;;;;;3.80;1.90;;;;;;;27.12;33.17;101016.59;108897;1260;62456;-89
2023/08/10 10:12:58;;;;;;;4.20;2.40;;;;;;;27.18;32.91;101010.52;108877;1260;57885;-88
2023/08/10 10:15:25;;;;;;;5.10;2.60;;;;;;;27.26;32.32;101009.23;108899;1260;58115;-88
2023/08/10 10:17:53;;;;;;;4.90;2.40;;;;;;;27.30;32.90;101011.94;105676;1258;72207;-57
2023/08/10 10:20:21;;;;;;;7.40;2.50;;;;;;;27.33;32.47;101013.20;105206;1257;61483;-56
2023/08/10 10:22:48;;;;;;;5.90;2.40;;;;;;;27.28;31.73;101009.31;104810;1261;63700;-56
2023/08/10 10:25:19;;;;;;;4.50;2.30;;;;;;;27.25;32.27;101005.38;105334;1261;60470;-54
2023/08/10 10:27:49;;;;;;;6.00;2.60;;;;;;;27.27;32.27;101009.98;105057;1260;60312;-55
2023/08/10 10:30:17;;;;;;;5.70;2.60;;;;;;;27.30;32.72;101008.73;105289;1260;64890;-56
2023/08/10 10:32:54;;;;;;;6.00;2.50;;;;;;;27.33;32.65;101002.44;105050;1260;63695;-62
2023/08/10 10:35:25;;;;;;;4.10;2.00;;;;;;;27.33;31.95;100997.95;105052;1260;62430;-62
2023/08/10 10:37:55;;;;;;;5.60;2.20;;;;;;;27.33;32.13;100996.21;105093;1257;60550;-50
2023/08/10 10:40:23;;;;;;;5.00;2.30;;;;;;;27.33;32.84;100990.80;105211;1260;60543;-49
2023/08/10 10:43:03;;;;;;;5.40;2.70;;;;;;;27.39;33.09;100990.13;105173;1260;64957;-49
2023/08/10 10:45:40;;;;;;;5.20;2.70;;;;;;;27.50;31.75;100982.73;107333;1261;60546;-51
2023/08/10 10:48:12;;;;;;;5.60;2.70;;;;;;;27.55;31.81;100979.85;105202;1257;64310;-49
2023/08/10 10:50:40;;;;;;;6.30;2.70;;;;;;;27.63;31.73;100979.34;105156;1261;60578;-48
2023/08/10 10:53:13;;;;;;;5.20;2.50;;;;;;;27.66;31.90;100982.80;105295;1261;60569;-49
2023/08/10 10:55:42;;;;;;;5.10;2.40;;;;;;;27.58;31.66;100980.55;105170;1261;64874;-48
2023/08/10 10:58:11;;;;;;;6.20;2.30;;;;;;;27.47;31.90;100981.88;105356;1258;61915;-49
2023/08/10 11:00:40;;;;;;;5.60;2.60;;;;;;;27.39;31.93;100978.90;105081;1260;63739;-49
2023/08/10 11:03:08;;;;;;;4.70;2.50;;;;;;;27.34;32.29;100978.91;105282;1261;60706;-49
2023/08/10 11:05:37;;;;;;;5.30;2.00;;;;;;;27.29;31.45;100974.98;105555;1258;60400;-48
2023/08/10 11:08:08;;;;;;;4.80;2.50;;;;;;;27.24;31.17;100974.01;105106;1260;64947;-54
2023/08/10 11:10:36;;;;;;;6.70;2.80;;;;;;;27.26;31.53;100971.08;105323;1257;61408;-52
2023/08/10 11:13:05;;;;;;;5.90;2.70;;;;;;;27.30;30.93;100966.17;105128;1258;63723;-50
2023/08/10 11:15:33;;;;;;;5.10;2.20;;;;;;;27.32;30.66;100967.04;105087;1260;61574;-49
2023/08/10 11:18:03;;;;;;;5.10;2.00;;;;;;;27.34;30.24;100962.73;105415;1257;60545;-49
2023/08/10 11:20:31;;;;;;;4.80;2.40;;;;;;;27.40;30.45;100955.71;105335;1258;64900;-50
2023/08/10 11:22:59;;;;;;;5.40;2.30;;;;;;;27.51;31.24;100961.39;105238;1258;61346;-49